Caleb J. Eymard — WDC8180 — position and weather

sailwx.info

Track history (hours):
 
Tides and Currents Weather Stations Pressure Air Temp Water Temp Dewpoint Dewpoint Depression Visibility Wind Speed Wind Dir Waves Ship Positions

Caleb J. Eymard

Owner: Eymard Brothers Towing Company, Inc., Marrero, LA. More information available from US FCC via Universal Licensing System and Coast Guard Vessel Documentation Center.

Last reported at 2017-Sep-24 14:00 UTC. Time now 2017-Sep-24 14:20 UTC.
Position N 29°43' W 094°56'.

Length 20 m; draft 3 m.

Type: Towing. MMSI: 367082880.

Date/timePositionNaut miles runAvg speedWind from/ knotsBaromVisibWave heightAir tempDewpointWater temp
2017-Sep-24 14:00N 29°43' W 094°56'0 0.2
2017-Sep-24 13:30N 29°43' W 094°56'0 0.1
2017-Sep-24 13:01N 29°43' W 094°56'0 0.0
2017-Sep-24 06:56N 29°43' W 094°56'0 0.0
2017-Sep-24 03:19N 29°43' W 094°56'0 0.0
2017-Sep-24 01:47N 29°43' W 094°56'0 0.0
2017-Sep-24 01:29N 29°43' W 094°56'0 0.0
2017-Sep-24 00:54N 29°43' W 094°56'0 0.1
2017-Sep-24 00:30N 29°43' W 094°56'0 0.0
2017-Sep-24 00:00N 29°43' W 094°56'0 0.0
2017-Sep-23 23:28N 29°43' W 094°56'0 0.0
2017-Sep-23 22:57N 29°43' W 094°56'0 0.0
2017-Sep-23 21:04N 29°43' W 094°56'0 0.0
2017-Sep-23 20:41N 29°43' W 094°56'0 0.0
2017-Sep-23 19:48N 29°43' W 094°56'1 0.0
2017-Sep-22 01:59N 29°42' W 094°55'1 1.6
2017-Sep-22 01:30N 29°42' W 094°56'0 0.5
2017-Sep-22 01:00N 29°43' W 094°56'0 0.0
2017-Sep-22 00:30N 29°43' W 094°56'0 0.0
2017-Sep-22 00:00N 29°43' W 094°56'0 0.0
2017-Sep-21 23:31N 29°43' W 094°56'0 0.1
2017-Sep-21 23:00N 29°43' W 094°56'0 0.1
2017-Sep-21 22:30N 29°43' W 094°56'0 0.0
2017-Sep-21 22:00N 29°43' W 094°56'0 0.0
2017-Sep-21 21:30N 29°43' W 094°56'0 0.0
2017-Sep-21 21:01N 29°43' W 094°56'0 0.0
2017-Sep-21 20:28N 29°43' W 094°56'0 0.3
2017-Sep-21 20:00N 29°43' W 094°56'0 0.3
2017-Sep-21 19:30N 29°43' W 094°56'0 0.0
2017-Sep-21 18:59N 29°43' W 094°56'0 0.0
2017-Sep-21 15:24N 29°43' W 094°56'1 1.2
2017-Sep-21 14:57N 29°42' W 094°56'1 1.3
2017-Sep-21 14:30N 29°42' W 094°55'1 1.0
2017-Sep-21 13:57N 29°42' W 094°56'1 0.1
2017-Sep-21 02:14N 29°43' W 094°57'1 2.7
2017-Sep-21 01:59N 29°43' W 094°56'1 1.8
2017-Sep-21 01:28N 29°42' W 094°55'0 0.1
2017-Sep-20 21:39N 29°42' W 094°55'0 2.8
2017-Sep-20 21:30N 29°41' W 094°55'1 2.4
2017-Sep-20 20:59N 29°41' W 094°56'2 3.5
2017-Sep-20 20:30N 29°41' W 094°58'1 3.0
2017-Sep-20 20:01N 29°40' W 094°58'2 4.5
2017-Sep-20 19:31N 29°38' W 094°58'1 2.3
2017-Sep-20 19:01N 29°37' W 094°58'1 2.8
2017-Sep-20 18:31N 29°37' W 095°00'0 0.0
2017-Sep-20 18:00N 29°37' W 095°00'0 0.1
2017-Sep-20 17:30N 29°37' W 095°00'0 0.1
2017-Sep-20 17:00N 29°37' W 095°00'0 0.0
2017-Sep-20 16:30N 29°37' W 095°00'0 0.0
2017-Sep-20 16:00N 29°37' W 095°00'0 0.0
2017-Sep-20 15:30N 29°37' W 095°00'0 0.0
2017-Sep-20 15:01N 29°37' W 095°00'0 0.0
2017-Sep-20 14:01N 29°37' W 095°00'0 0.1
2017-Sep-20 13:31N 29°37' W 095°00'0 0.0
2017-Sep-20 13:00N 29°37' W 095°00'0 0.0
2017-Sep-20 12:27N 29°37' W 095°00'0 0.1
2017-Sep-20 12:01N 29°37' W 095°00'0 0.0
2017-Sep-20 11:30N 29°37' W 095°00'0 0.0
2017-Sep-20 11:00N 29°37' W 095°00'0 0.0
2017-Sep-20 10:30N 29°37' W 095°00'0 0.0
2017-Sep-20 10:01N 29°37' W 095°00'0 0.0
2017-Sep-20 09:31N 29°37' W 095°00'0 0.0
2017-Sep-20 09:01N 29°37' W 095°00'0 0.0
2017-Sep-20 08:31N 29°37' W 095°00'0 0.0
2017-Sep-20 08:00N 29°37' W 095°00'0 0.0
2017-Sep-20 07:30N 29°37' W 095°00'0 0.0
2017-Sep-20 07:01N 29°37' W 095°00'0 0.0
2017-Sep-20 06:31N 29°37' W 095°00'2 4.1
2017-Sep-20 06:01N 29°37' W 094°58'2 5.0
2017-Sep-20 05:30N 29°39' W 094°58'2 4.1
2017-Sep-20 05:00N 29°41' W 094°58'2 3.7
2017-Sep-20 04:27N 29°41' W 094°56'1 1.9
2017-Sep-20 03:46N 29°42' W 094°55'0 0.8
2017-Sep-20 03:30N 29°42' W 094°55'2 3.3
2017-Sep-20 02:57N 29°41' W 094°57'2 5.0
2017-Sep-20 02:31N 29°42' W 094°60'4 5.8
2017-Sep-20 01:54N 29°44' W 095°03'3 5.8
2017-Sep-20 01:27N 29°46' W 095°05'4 5.7
2017-Sep-20 00:47N 29°44' W 095°09'2 6.2
2017-Sep-20 00:30N 29°45' W 095°11'0 0.4
2017-Sep-19 23:59N 29°45' W 095°11'0 0.0
2017-Sep-19 23:30N 29°45' W 095°11'0 0.0
2017-Sep-19 21:54N 29°45' W 095°11'0 0.0
2017-Sep-19 20:10N 29°45' W 095°11'0 1.0
2017-Sep-19 19:49N 29°45' W 095°11'0 0.3
2017-Sep-19 18:33N 29°45' W 095°11'0 0.0
2017-Sep-19 18:20N 29°45' W 095°11'0 0.0
2017-Sep-19 17:52N 29°45' W 095°11'0 0.0
2017-Sep-19 17:11N 29°45' W 095°11'0 0.0
2017-Sep-19 16:59N 29°45' W 095°11'0 0.0
2017-Sep-19 16:29N 29°45' W 095°11'0 0.0
2017-Sep-19 15:59N 29°45' W 095°11'0 0.0
2017-Sep-19 07:06N 29°45' W 095°11'1 6.1
2017-Sep-19 06:59N 29°45' W 095°10'3 5.7
2017-Sep-19 06:30N 29°44' W 095°07'2 4.9
2017-Sep-19 06:00N 29°45' W 095°04'3 5.7
2017-Sep-19 05:30N 29°44' W 095°01'3 5.2
2017-Sep-19 05:00N 29°42' W 094°59'2 4.8
2017-Sep-19 04:31N 29°41' W 094°57'2 3.6
2017-Sep-19 03:58N 29°42' W 094°55'0 0.1
2017-Sep-19 03:20N 29°42' W 094°55'0 0.0
2017-Sep-19 02:40N 29°42' W 094°55'0 0.3
2017-Sep-19 02:26N 29°42' W 094°55'1 2.5
2017-Sep-19 01:57N 29°41' W 094°56'1 2.4
2017-Sep-19 01:30N 29°41' W 094°57'2 3.3
2017-Sep-19 01:01N 29°41' W 094°59'2 4.6
2017-Sep-19 00:31N 29°42' W 095°01'2 4.5
2017-Sep-19 00:00N 29°44' W 095°03'3 4.0
2017-Sep-18 23:19N 29°45' W 095°06'2 5.1
2017-Sep-18 22:50N 29°44' W 095°08'2 4.4
2017-Sep-18 22:18N 29°45' W 095°11'1 2.6
2017-Sep-18 22:00N 29°45' W 095°11'2 3.1
2017-Sep-18 21:23N 29°43' W 095°13'2 5.1
2017-Sep-18 20:55N 29°44' W 095°16'1 0.3
2017-Sep-18 18:19N 29°44' W 095°17'2 4.3
2017-Sep-18 17:58N 29°43' W 095°15'3 5.2
2017-Sep-18 17:25N 29°44' W 095°12'0 0.7
2017-Sep-18 16:57N 29°45' W 095°12'4 5.7
2017-Sep-18 16:17N 29°44' W 095°16'1 2.9
2017-Sep-18 15:59N 29°44' W 095°17'5 1.5
2017-Sep-18 12:59N 29°45' W 095°11'0 0.0
2017-Sep-17 23:44N 29°45' W 095°11'1 0.4
2017-Sep-17 22:16N 29°45' W 095°11'0 0.0
2017-Sep-17 21:53N 29°45' W 095°11'0 0.0
2017-Sep-17 21:30N 29°45' W 095°11'0 0.0
2017-Sep-17 20:39N 29°45' W 095°11'1 0.1
2017-Sep-17 14:16N 29°45' W 095°11'0 0.0
2017-Sep-16 20:22N 29°45' W 095°11'0 0.0
2017-Sep-16 20:00N 29°45' W 095°11'0 0.0
2017-Sep-16 19:30N 29°45' W 095°11'0 0.0
2017-Sep-16 19:01N 29°45' W 095°11'1 0.2
2017-Sep-16 16:03N 29°45' W 095°11'0 0.0
2017-Sep-16 16:00N 29°45' W 095°11'0 0.0
2017-Sep-16 15:31N 29°45' W 095°11'0 0.0
2017-Sep-16 15:00N 29°45' W 095°11'0 0.0
2017-Sep-16 14:29N 29°45' W 095°11'0 0.0
2017-Sep-16 13:58N 29°45' W 095°11'0 0.0
2017-Sep-16 13:27N 29°45' W 095°11'0 0.0
2017-Sep-16 12:41N 29°45' W 095°11'0 0.0
2017-Sep-16 12:19N 29°45' W 095°11'1 1.0
2017-Sep-16 11:43N 29°45' W 095°10'1 5.7
2017-Sep-16 11:29N 29°44' W 095°09'3 5.4
2017-Sep-16 10:55N 29°45' W 095°06'2 4.3
2017-Sep-16 10:30N 29°45' W 095°04'3 5.5
2017-Sep-16 10:00N 29°43' W 095°01'3 5.3
2017-Sep-16 09:30N 29°41' W 094°59'2 4.0
2017-Sep-16 09:00N 29°41' W 094°57'1 2.8
2017-Sep-16 08:30N 29°41' W 094°55'0 0.3
2017-Sep-16 07:42N 29°42' W 094°55'1 3.0
2017-Sep-16 07:29N 29°41' W 094°55'2 3.5
2017-Sep-16 07:00N 29°41' W 094°57'2 4.6
2017-Sep-16 06:30N 29°41' W 094°60'0 0.5
2017-Sep-16 06:01N 29°41' W 095°00'2 4.6
2017-Sep-16 05:31N 29°41' W 094°58'2 3.6
2017-Sep-16 05:00N 29°41' W 094°55'1 1.2
2017-Sep-16 04:22N 29°42' W 094°55'1 2.3
2017-Sep-16 03:55N 29°41' W 094°56'1 1.9
2017-Sep-16 03:30N 29°41' W 094°57'2 3.1
2017-Sep-16 03:01N 29°41' W 094°58'2 4.6
2017-Sep-16 02:29N 29°42' W 095°01'2 5.0
2017-Sep-16 02:00N 29°44' W 095°03'3 5.1
2017-Sep-16 01:27N 29°46' W 095°05'3 5.3
2017-Sep-16 00:55N 29°44' W 095°08'2 5.1
2017-Sep-16 00:28N 29°45' W 095°10'0 0.1
2017-Sep-15 19:57N 29°45' W 095°11'0 0.0
2017-Sep-15 19:29N 29°45' W 095°11'0 0.0
2017-Sep-15 18:57N 29°45' W 095°11'0 0.0
2017-Sep-15 18:02N 29°45' W 095°11'0 0.0
2017-Sep-15 17:47N 29°45' W 095°11'0 0.1
2017-Sep-15 16:42N 29°45' W 095°11'0 2.3
2017-Sep-15 16:30N 29°45' W 095°11'0 0.2
2017-Sep-15 15:31N 29°45' W 095°11'0 0.2
2017-Sep-15 15:20N 29°45' W 095°11'0 0.5
2017-Sep-15 14:41N 29°45' W 095°11'0 0.0
2017-Sep-15 14:26N 29°45' W 095°11'0 0.0
2017-Sep-15 13:49N 29°45' W 095°11'0 0.0
2017-Sep-15 13:27N 29°45' W 095°11'0 0.0
2017-Sep-15 12:58N 29°45' W 095°11'0 0.0
2017-Sep-15 12:18N 29°45' W 095°11'0 0.2
2017-Sep-15 11:52N 29°45' W 095°11'1 2.7
2017-Sep-15 11:28N 29°45' W 095°10'2 5.4
2017-Sep-15 11:00N 29°44' W 095°07'3 4.7
2017-Sep-15 10:27N 29°45' W 095°04'3 5.6
2017-Sep-15 09:59N 29°44' W 095°02'3 5.5
2017-Sep-15 09:31N 29°42' W 094°60'2 4.5
2017-Sep-15 09:00N 29°41' W 094°57'2 3.4
2017-Sep-15 08:29N 29°41' W 094°55'1 1.1
2017-Sep-15 07:55N 29°42' W 094°55'2 3.7
2017-Sep-15 07:30N 29°40' W 094°56'2 4.6
2017-Sep-15 07:01N 29°41' W 094°59'1 1.9
2017-Sep-15 06:18N 29°41' W 095°00'1 4.6
2017-Sep-15 06:01N 29°41' W 094°59'2 4.9
2017-Sep-15 05:31N 29°40' W 094°56'2 3.3
2017-Sep-15 04:58N 29°42' W 094°55'0 0.0
2017-Sep-15 04:22N 29°42' W 094°55'0 0.0
2017-Sep-15 04:00N 29°42' W 094°55'0 0.0
2017-Sep-15 03:29N 29°42' W 094°55'1 1.2
2017-Sep-15 02:58N 29°41' W 094°55'1 2.6
2017-Sep-15 02:30N 29°40' W 094°56'2 3.0
2017-Sep-15 01:56N 29°41' W 094°58'1 2.8
2017-Sep-15 01:31N 29°41' W 094°59'3 5.3
2017-Sep-15 01:01N 29°43' W 095°01'3 4.9
2017-Sep-15 00:29N 29°44' W 095°04'2 3.8
2017-Sep-15 00:00N 29°45' W 095°06'3 5.0
2017-Sep-14 23:29N 29°44' W 095°08'2 5.0
2017-Sep-14 23:01N 29°45' W 095°11'0 0.2
2017-Sep-14 22:18N 29°45' W 095°11'0 0.1
2017-Sep-14 21:52N 29°45' W 095°11'0 0.1
2017-Sep-14 20:51N 29°45' W 095°11'0 0.1
2017-Sep-14 20:27N 29°45' W 095°11'0 0.0
2017-Sep-14 18:57N 29°45' W 095°11'0 0.1
2017-Sep-14 18:28N 29°45' W 095°11'0 0.0
2017-Sep-14 18:00N 29°45' W 095°11'0 0.0
2017-Sep-14 17:30N 29°45' W 095°11'0 0.1
2017-Sep-14 16:25N 29°45' W 095°11'0 0.0
2017-Sep-14 15:11N 29°45' W 095°11'0 0.0
2017-Sep-14 14:53N 29°45' W 095°11'0 0.1
2017-Sep-14 14:22N 29°45' W 095°11'  
Track history (hours):
 
Tides and Currents Weather Stations Pressure Air Temp Water Temp Dewpoint Dewpoint Depression Visibility Wind Speed Wind Dir Waves Ship Positions

Caleb J. Eymard

Owner: Eymard Brothers Towing Company, Inc., Marrero, LA. More information available from US FCC via Universal Licensing System and Coast Guard Vessel Documentation Center.

Last reported at 2017-Sep-24 14:00 UTC. Time now 2017-Sep-24 14:20 UTC.
Position N 29°43' W 094°56'.

Length 20 m; draft 3 m.

Type: Towing. MMSI: 367082880.

Date/timePositionNaut miles runAvg speedWind from/ knotsBaromVisibWave heightAir tempDewpointWater temp
2017-Sep-24 14:00N 29°43' W 094°56'0 0.2
2017-Sep-24 13:30N 29°43' W 094°56'0 0.1
2017-Sep-24 13:01N 29°43' W 094°56'0 0.0
2017-Sep-24 06:56N 29°43' W 094°56'0 0.0
2017-Sep-24 03:19N 29°43' W 094°56'0 0.0
2017-Sep-24 01:47N 29°43' W 094°56'0 0.0
2017-Sep-24 01:29N 29°43' W 094°56'0 0.0
2017-Sep-24 00:54N 29°43' W 094°56'0 0.1
2017-Sep-24 00:30N 29°43' W 094°56'0 0.0
2017-Sep-24 00:00N 29°43' W 094°56'0 0.0
2017-Sep-23 23:28N 29°43' W 094°56'0 0.0
2017-Sep-23 22:57N 29°43' W 094°56'0 0.0
2017-Sep-23 21:04N 29°43' W 094°56'0 0.0
2017-Sep-23 20:41N 29°43' W 094°56'0 0.0
2017-Sep-23 19:48N 29°43' W 094°56'1 0.0
2017-Sep-22 01:59N 29°42' W 094°55'1 1.6
2017-Sep-22 01:30N 29°42' W 094°56'0 0.5
2017-Sep-22 01:00N 29°43' W 094°56'0 0.0
2017-Sep-22 00:30N 29°43' W 094°56'0 0.0
2017-Sep-22 00:00N 29°43' W 094°56'0 0.0
2017-Sep-21 23:31N 29°43' W 094°56'0 0.1
2017-Sep-21 23:00N 29°43' W 094°56'0 0.1
2017-Sep-21 22:30N 29°43' W 094°56'0 0.0
2017-Sep-21 22:00N 29°43' W 094°56'0 0.0
2017-Sep-21 21:30N 29°43' W 094°56'0 0.0
2017-Sep-21 21:01N 29°43' W 094°56'0 0.0
2017-Sep-21 20:28N 29°43' W 094°56'0 0.3
2017-Sep-21 20:00N 29°43' W 094°56'0 0.3
2017-Sep-21 19:30N 29°43' W 094°56'0 0.0
2017-Sep-21 18:59N 29°43' W 094°56'0 0.0
2017-Sep-21 15:24N 29°43' W 094°56'1 1.2
2017-Sep-21 14:57N 29°42' W 094°56'1 1.3
2017-Sep-21 14:30N 29°42' W 094°55'1 1.0
2017-Sep-21 13:57N 29°42' W 094°56'1 0.1
2017-Sep-21 02:14N 29°43' W 094°57'1 2.7
2017-Sep-21 01:59N 29°43' W 094°56'1 1.8
2017-Sep-21 01:28N 29°42' W 094°55'0 0.1
2017-Sep-20 21:39N 29°42' W 094°55'0 2.8
2017-Sep-20 21:30N 29°41' W 094°55'1 2.4
2017-Sep-20 20:59N 29°41' W 094°56'2 3.5
2017-Sep-20 20:30N 29°41' W 094°58'1 3.0
2017-Sep-20 20:01N 29°40' W 094°58'2 4.5
2017-Sep-20 19:31N 29°38' W 094°58'1 2.3
2017-Sep-20 19:01N 29°37' W 094°58'1 2.8
2017-Sep-20 18:31N 29°37' W 095°00'0 0.0
2017-Sep-20 18:00N 29°37' W 095°00'0 0.1
2017-Sep-20 17:30N 29°37' W 095°00'0 0.1
2017-Sep-20 17:00N 29°37' W 095°00'0 0.0
2017-Sep-20 16:30N 29°37' W 095°00'0 0.0
2017-Sep-20 16:00N 29°37' W 095°00'0 0.0
2017-Sep-20 15:30N 29°37' W 095°00'0 0.0
2017-Sep-20 15:01N 29°37' W 095°00'0 0.0
2017-Sep-20 14:01N 29°37' W 095°00'0 0.1
2017-Sep-20 13:31N 29°37' W 095°00'0 0.0
2017-Sep-20 13:00N 29°37' W 095°00'0 0.0
2017-Sep-20 12:27N 29°37' W 095°00'0 0.1
2017-Sep-20 12:01N 29°37' W 095°00'0 0.0
2017-Sep-20 11:30N 29°37' W 095°00'0 0.0
2017-Sep-20 11:00N 29°37' W 095°00'0 0.0
2017-Sep-20 10:30N 29°37' W 095°00'0 0.0
2017-Sep-20 10:01N 29°37' W 095°00'0 0.0
2017-Sep-20 09:31N 29°37' W 095°00'0 0.0
2017-Sep-20 09:01N 29°37' W 095°00'0 0.0
2017-Sep-20 08:31N 29°37' W 095°00'0 0.0
2017-Sep-20 08:00N 29°37' W 095°00'0 0.0
2017-Sep-20 07:30N 29°37' W 095°00'0 0.0
2017-Sep-20 07:01N 29°37' W 095°00'0 0.0
2017-Sep-20 06:31N 29°37' W 095°00'2 4.1
2017-Sep-20 06:01N 29°37' W 094°58'2 5.0
2017-Sep-20 05:30N 29°39' W 094°58'2 4.1
2017-Sep-20 05:00N 29°41' W 094°58'2 3.7
2017-Sep-20 04:27N 29°41' W 094°56'1 1.9
2017-Sep-20 03:46N 29°42' W 094°55'0 0.8
2017-Sep-20 03:30N 29°42' W 094°55'2 3.3
2017-Sep-20 02:57N 29°41' W 094°57'2 5.0
2017-Sep-20 02:31N 29°42' W 094°60'4 5.8
2017-Sep-20 01:54N 29°44' W 095°03'3 5.8
2017-Sep-20 01:27N 29°46' W 095°05'4 5.7
2017-Sep-20 00:47N 29°44' W 095°09'2 6.2
2017-Sep-20 00:30N 29°45' W 095°11'0 0.4
2017-Sep-19 23:59N 29°45' W 095°11'0 0.0
2017-Sep-19 23:30N 29°45' W 095°11'0 0.0
2017-Sep-19 21:54N 29°45' W 095°11'0 0.0
2017-Sep-19 20:10N 29°45' W 095°11'0 1.0
2017-Sep-19 19:49N 29°45' W 095°11'0 0.3
2017-Sep-19 18:33N 29°45' W 095°11'0 0.0
2017-Sep-19 18:20N 29°45' W 095°11'0 0.0
2017-Sep-19 17:52N 29°45' W 095°11'0 0.0
2017-Sep-19 17:11N 29°45' W 095°11'0 0.0
2017-Sep-19 16:59N 29°45' W 095°11'0 0.0
2017-Sep-19 16:29N 29°45' W 095°11'0 0.0
2017-Sep-19 15:59N 29°45' W 095°11'0 0.0
2017-Sep-19 07:06N 29°45' W 095°11'1 6.1
2017-Sep-19 06:59N 29°45' W 095°10'3 5.7
2017-Sep-19 06:30N 29°44' W 095°07'2 4.9
2017-Sep-19 06:00N 29°45' W 095°04'3 5.7
2017-Sep-19 05:30N 29°44' W 095°01'3 5.2
2017-Sep-19 05:00N 29°42' W 094°59'2 4.8
2017-Sep-19 04:31N 29°41' W 094°57'2 3.6
2017-Sep-19 03:58N 29°42' W 094°55'0 0.1
2017-Sep-19 03:20N 29°42' W 094°55'0 0.0
2017-Sep-19 02:40N 29°42' W 094°55'0 0.3
2017-Sep-19 02:26N 29°42' W 094°55'1 2.5
2017-Sep-19 01:57N 29°41' W 094°56'1 2.4
2017-Sep-19 01:30N 29°41' W 094°57'2 3.3
2017-Sep-19 01:01N 29°41' W 094°59'2 4.6
2017-Sep-19 00:31N 29°42' W 095°01'2 4.5
2017-Sep-19 00:00N 29°44' W 095°03'3 4.0
2017-Sep-18 23:19N 29°45' W 095°06'2 5.1
2017-Sep-18 22:50N 29°44' W 095°08'2 4.4
2017-Sep-18 22:18N 29°45' W 095°11'1 2.6
2017-Sep-18 22:00N 29°45' W 095°11'2 3.1
2017-Sep-18 21:23N 29°43' W 095°13'2 5.1
2017-Sep-18 20:55N 29°44' W 095°16'1 0.3
2017-Sep-18 18:19N 29°44' W 095°17'2 4.3
2017-Sep-18 17:58N 29°43' W 095°15'3 5.2
2017-Sep-18 17:25N 29°44' W 095°12'0 0.7
2017-Sep-18 16:57N 29°45' W 095°12'4 5.7
2017-Sep-18 16:17N 29°44' W 095°16'1 2.9
2017-Sep-18 15:59N 29°44' W 095°17'5 1.5
2017-Sep-18 12:59N 29°45' W 095°11'0 0.0
2017-Sep-17 23:44N 29°45' W 095°11'1 0.4
2017-Sep-17 22:16N 29°45' W 095°11'0 0.0
2017-Sep-17 21:53N 29°45' W 095°11'0 0.0
2017-Sep-17 21:30N 29°45' W 095°11'0 0.0
2017-Sep-17 20:39N 29°45' W 095°11'1 0.1
2017-Sep-17 14:16N 29°45' W 095°11'0 0.0
2017-Sep-16 20:22N 29°45' W 095°11'0 0.0
2017-Sep-16 20:00N 29°45' W 095°11'0 0.0
2017-Sep-16 19:30N 29°45' W 095°11'0 0.0
2017-Sep-16 19:01N 29°45' W 095°11'1 0.2
2017-Sep-16 16:03N 29°45' W 095°11'0 0.0
2017-Sep-16 16:00N 29°45' W 095°11'0 0.0
2017-Sep-16 15:31N 29°45' W 095°11'0 0.0
2017-Sep-16 15:00N 29°45' W 095°11'0 0.0
2017-Sep-16 14:29N 29°45' W 095°11'0 0.0
2017-Sep-16 13:58N 29°45' W 095°11'0 0.0
2017-Sep-16 13:27N 29°45' W 095°11'0 0.0
2017-Sep-16 12:41N 29°45' W 095°11'0 0.0
2017-Sep-16 12:19N 29°45' W 095°11'1 1.0
2017-Sep-16 11:43N 29°45' W 095°10'1 5.7
2017-Sep-16 11:29N 29°44' W 095°09'3 5.4
2017-Sep-16 10:55N 29°45' W 095°06'2 4.3
2017-Sep-16 10:30N 29°45' W 095°04'3 5.5
2017-Sep-16 10:00N 29°43' W 095°01'3 5.3
2017-Sep-16 09:30N 29°41' W 094°59'2 4.0
2017-Sep-16 09:00N 29°41' W 094°57'1 2.8
2017-Sep-16 08:30N 29°41' W 094°55'0 0.3
2017-Sep-16 07:42N 29°42' W 094°55'1 3.0
2017-Sep-16 07:29N 29°41' W 094°55'2 3.5
2017-Sep-16 07:00N 29°41' W 094°57'2 4.6
2017-Sep-16 06:30N 29°41' W 094°60'0 0.5
2017-Sep-16 06:01N 29°41' W 095°00'2 4.6
2017-Sep-16 05:31N 29°41' W 094°58'2 3.6
2017-Sep-16 05:00N 29°41' W 094°55'1 1.2
2017-Sep-16 04:22N 29°42' W 094°55'1 2.3
2017-Sep-16 03:55N 29°41' W 094°56'1 1.9
2017-Sep-16 03:30N 29°41' W 094°57'2 3.1
2017-Sep-16 03:01N 29°41' W 094°58'2 4.6
2017-Sep-16 02:29N 29°42' W 095°01'2 5.0
2017-Sep-16 02:00N 29°44' W 095°03'3 5.1
2017-Sep-16 01:27N 29°46' W 095°05'3 5.3
2017-Sep-16 00:55N 29°44' W 095°08'2 5.1
2017-Sep-16 00:28N 29°45' W 095°10'0 0.1
2017-Sep-15 19:57N 29°45' W 095°11'0 0.0
2017-Sep-15 19:29N 29°45' W 095°11'0 0.0
2017-Sep-15 18:57N 29°45' W 095°11'0 0.0
2017-Sep-15 18:02N 29°45' W 095°11'0 0.0
2017-Sep-15 17:47N 29°45' W 095°11'0 0.1
2017-Sep-15 16:42N 29°45' W 095°11'0 2.3
2017-Sep-15 16:30N 29°45' W 095°11'0 0.2
2017-Sep-15 15:31N 29°45' W 095°11'0 0.2
2017-Sep-15 15:20N 29°45' W 095°11'0 0.5
2017-Sep-15 14:41N 29°45' W 095°11'0 0.0
2017-Sep-15 14:26N 29°45' W 095°11'0 0.0
2017-Sep-15 13:49N 29°45' W 095°11'0 0.0
2017-Sep-15 13:27N 29°45' W 095°11'0 0.0
2017-Sep-15 12:58N 29°45' W 095°11'0 0.0
2017-Sep-15 12:18N 29°45' W 095°11'0 0.2
2017-Sep-15 11:52N 29°45' W 095°11'1 2.7
2017-Sep-15 11:28N 29°45' W 095°10'2 5.4
2017-Sep-15 11:00N 29°44' W 095°07'3 4.7
2017-Sep-15 10:27N 29°45' W 095°04'3 5.6
2017-Sep-15 09:59N 29°44' W 095°02'3 5.5
2017-Sep-15 09:31N 29°42' W 094°60'2 4.5
2017-Sep-15 09:00N 29°41' W 094°57'2 3.4
2017-Sep-15 08:29N 29°41' W 094°55'1 1.1
2017-Sep-15 07:55N 29°42' W 094°55'2 3.7
2017-Sep-15 07:30N 29°40' W 094°56'2 4.6
2017-Sep-15 07:01N 29°41' W 094°59'1 1.9
2017-Sep-15 06:18N 29°41' W 095°00'1 4.6
2017-Sep-15 06:01N 29°41' W 094°59'2 4.9
2017-Sep-15 05:31N 29°40' W 094°56'2 3.3
2017-Sep-15 04:58N 29°42' W 094°55'0 0.0
2017-Sep-15 04:22N 29°42' W 094°55'0 0.0
2017-Sep-15 04:00N 29°42' W 094°55'0 0.0
2017-Sep-15 03:29N 29°42' W 094°55'1 1.2
2017-Sep-15 02:58N 29°41' W 094°55'1 2.6
2017-Sep-15 02:30N 29°40' W 094°56'2 3.0
2017-Sep-15 01:56N 29°41' W 094°58'1 2.8
2017-Sep-15 01:31N 29°41' W 094°59'3 5.3
2017-Sep-15 01:01N 29°43' W 095°01'3 4.9
2017-Sep-15 00:29N 29°44' W 095°04'2 3.8
2017-Sep-15 00:00N 29°45' W 095°06'3 5.0
2017-Sep-14 23:29N 29°44' W 095°08'2 5.0
2017-Sep-14 23:01N 29°45' W 095°11'0 0.2
2017-Sep-14 22:18N 29°45' W 095°11'0 0.1
2017-Sep-14 21:52N 29°45' W 095°11'0 0.1
2017-Sep-14 20:51N 29°45' W 095°11'0 0.1
2017-Sep-14 20:27N 29°45' W 095°11'0 0.0
2017-Sep-14 18:57N 29°45' W 095°11'0 0.1
2017-Sep-14 18:28N 29°45' W 095°11'0 0.0
2017-Sep-14 18:00N 29°45' W 095°11'0 0.0
2017-Sep-14 17:30N 29°45' W 095°11'0 0.1
2017-Sep-14 16:25N 29°45' W 095°11'0 0.0
2017-Sep-14 15:11N 29°45' W 095°11'0 0.0
2017-Sep-14 14:53N 29°45' W 095°11'0 0.1
2017-Sep-14 14:22N 29°45' W 095°11'  

Dump ship's entire track history